sensor_id;sensor_type;location;lat;lon;timestamp;P1;durP1;ratioP1;P2;durP2;ratioP2
5539;SDS011;2792;52.452;9.752;2023-11-19T00:00:34;4.13;;;2.83;;
5539;SDS011;2792;52.452;9.752;2023-11-19T00:03:01;3.30;;;2.80;;
5539;SDS011;2792;52.452;9.752;2023-11-19T00:05:27;2.80;;;2.60;;
5539;SDS011;2792;52.452;9.752;2023-11-19T00:07:54;3.20;;;2.57;;
5539;SDS011;2792;52.452;9.752;2023-11-19T00:10:24;3.07;;;2.87;;
5539;SDS011;2792;52.452;9.752;2023-11-19T00:12:51;4.43;;;3.00;;
5539;SDS011;2792;52.452;9.752;2023-11-19T00:15:17;5.33;;;3.10;;
5539;SDS011;2792;52.452;9.752;2023-11-19T00:17:44;3.73;;;3.43;;
5539;SDS011;2792;52.452;9.752;2023-11-19T00:20:12;3.57;;;3.27;;
5539;SDS011;2792;52.452;9.752;2023-11-19T00:22:40;3.63;;;3.33;;
5539;SDS011;2792;52.452;9.752;2023-11-19T00:25:07;2.57;;;2.37;;
5539;SDS011;2792;52.452;9.752;2023-11-19T00:27:35;3.60;;;2.70;;
5539;SDS011;2792;52.452;9.752;2023-11-19T00:30:03;2.77;;;2.57;;
5539;SDS011;2792;52.452;9.752;2023-11-19T00:32:35;2.57;;;2.37;;
5539;SDS011;2792;52.452;9.752;2023-11-19T00:35:03;2.93;;;2.73;;
5539;SDS011;2792;52.452;9.752;2023-11-19T00:37:30;2.90;;;2.70;;
5539;SDS011;2792;52.452;9.752;2023-11-19T00:39:57;3.00;;;2.70;;
5539;SDS011;2792;52.452;9.752;2023-11-19T00:42:24;2.47;;;2.27;;
5539;SDS011;2792;52.452;9.752;2023-11-19T00:44:53;3.03;;;2.83;;
5539;SDS011;2792;52.452;9.752;2023-11-19T00:47:20;2.80;;;2.60;;
5539;SDS011;2792;52.452;9.752;2023-11-19T00:49:46;2.90;;;2.60;;
5539;SDS011;2792;52.452;9.752;2023-11-19T00:52:15;4.10;;;2.97;;
5539;SDS011;2792;52.452;9.752;2023-11-19T00:54:41;2.67;;;2.47;;
5539;SDS011;2792;52.452;9.752;2023-11-19T00:57:08;2.47;;;2.27;;
5539;SDS011;2792;52.452;9.752;2023-11-19T00:59:34;2.67;;;2.47;;
5539;SDS011;2792;52.452;9.752;2023-11-19T01:02:02;2.90;;;2.20;;
5539;SDS011;2792;52.452;9.752;2023-11-19T01:04:29;2.70;;;2.50;;
5539;SDS011;2792;52.452;9.752;2023-11-19T01:06:56;2.30;;;2.20;;
5539;SDS011;2792;52.452;9.752;2023-11-19T01:09:22;2.30;;;2.10;;
5539;SDS011;2792;52.452;9.752;2023-11-19T01:11:49;3.07;;;2.27;;
5539;SDS011;2792;52.452;9.752;2023-11-19T01:14:15;2.43;;;2.23;;
5539;SDS011;2792;52.452;9.752;2023-11-19T01:16:42;2.57;;;2.37;;
5539;SDS011;2792;52.452;9.752;2023-11-19T01:19:10;3.53;;;2.47;;
5539;SDS011;2792;52.452;9.752;2023-11-19T01:21:37;2.87;;;2.07;;
5539;SDS011;2792;52.452;9.752;2023-11-19T01:24:04;3.47;;;3.17;;
5539;SDS011;2792;52.452;9.752;2023-11-19T01:26:34;2.73;;;2.53;;
5539;SDS011;2792;52.452;9.752;2023-11-19T01:29:01;3.50;;;2.30;;
5539;SDS011;2792;52.452;9.752;2023-11-19T01:31:27;3.57;;;2.50;;
5539;SDS011;2792;52.452;9.752;2023-11-19T01:33:53;3.13;;;2.70;;
5539;SDS011;2792;52.452;9.752;2023-11-19T01:36:21;4.13;;;2.30;;
5539;SDS011;2792;52.452;9.752;2023-11-19T01:38:48;2.27;;;2.13;;
5539;SDS011;2792;52.452;9.752;2023-11-19T01:41:15;2.33;;;2.23;;
5539;SDS011;2792;52.452;9.752;2023-11-19T01:43:41;3.03;;;2.20;;
5539;SDS011;2792;52.452;9.752;2023-11-19T01:46:07;2.37;;;2.17;;
5539;SDS011;2792;52.452;9.752;2023-11-19T01:48:36;2.37;;;2.17;;
5539;SDS011;2792;52.452;9.752;2023-11-19T01:51:05;2.13;;;1.93;;
5539;SDS011;2792;52.452;9.752;2023-11-19T01:53:34;2.93;;;2.20;;
5539;SDS011;2792;52.452;9.752;2023-11-19T01:56:02;2.90;;;2.30;;
5539;SDS011;2792;52.452;9.752;2023-11-19T01:58:29;2.37;;;2.17;;
5539;SDS011;2792;52.452;9.752;2023-11-19T02:00:56;2.67;;;2.30;;
5539;SDS011;2792;52.452;9.752;2023-11-19T02:03:23;2.87;;;2.00;;
5539;SDS011;2792;52.452;9.752;2023-11-19T02:05:51;2.17;;;2.03;;
5539;SDS011;2792;52.452;9.752;2023-11-19T02:08:18;4.00;;;2.20;;
5539;SDS011;2792;52.452;9.752;2023-11-19T02:10:47;1.77;;;1.67;;
5539;SDS011;2792;52.452;9.752;2023-11-19T02:13:13;2.10;;;2.00;;
5539;SDS011;2792;52.452;9.752;2023-11-19T02:15:41;1.80;;;1.70;;
5539;SDS011;2792;52.452;9.752;2023-11-19T02:18:18;2.17;;;1.90;;
5539;SDS011;2792;52.452;9.752;2023-11-19T02:20:46;5.83;;;2.00;;
5539;SDS011;2792;52.452;9.752;2023-11-19T02:23:13;2.27;;;2.07;;
5539;SDS011;2792;52.452;9.752;2023-11-19T02:25:40;1.67;;;1.57;;
5539;SDS011;2792;52.452;9.752;2023-11-19T02:28:07;1.80;;;1.70;;
5539;SDS011;2792;52.452;9.752;2023-11-19T02:30:36;2.57;;;1.73;;
5539;SDS011;2792;52.452;9.752;2023-11-19T02:33:03;1.70;;;1.60;;
5539;SDS011;2792;52.452;9.752;2023-11-19T02:35:31;1.67;;;1.57;;
5539;SDS011;2792;52.452;9.752;2023-11-19T02:37:58;1.70;;;1.60;;
5539;SDS011;2792;52.452;9.752;2023-11-19T02:40:25;1.63;;;1.53;;
5539;SDS011;2792;52.452;9.752;2023-11-19T02:42:52;1.60;;;1.43;;
5539;SDS011;2792;52.452;9.752;2023-11-19T02:45:20;1.40;;;1.30;;
5539;SDS011;2792;52.452;9.752;2023-11-19T02:47:47;1.30;;;1.20;;
5539;SDS011;2792;52.452;9.752;2023-11-19T02:50:13;2.00;;;1.30;;
5539;SDS011;2792;52.452;9.752;2023-11-19T02:52:40;1.07;;;1.07;;
5539;SDS011;2792;52.452;9.752;2023-11-19T02:55:07;1.20;;;1.20;;
5539;SDS011;2792;52.452;9.752;2023-11-19T02:57:37;1.33;;;1.10;;
5539;SDS011;2792;52.452;9.752;2023-11-19T03:00:05;1.07;;;1.07;;
5539;SDS011;2792;52.452;9.752;2023-11-19T03:02:39;1.50;;;1.40;;
5539;SDS011;2792;52.452;9.752;2023-11-19T03:05:10;1.30;;;1.30;;
5539;SDS011;2792;52.452;9.752;2023-11-19T03:07:36;1.00;;;1.00;;
5539;SDS011;2792;52.452;9.752;2023-11-19T03:10:03;1.47;;;1.33;;
5539;SDS011;2792;52.452;9.752;2023-11-19T03:12:30;1.70;;;1.60;;
5539;SDS011;2792;52.452;9.752;2023-11-19T03:14:57;3.73;;;1.43;;
5539;SDS011;2792;52.452;9.752;2023-11-19T03:17:23;1.50;;;1.40;;
5539;SDS011;2792;52.452;9.752;2023-11-19T03:19:51;4.10;;;1.70;;
5539;SDS011;2792;52.452;9.752;2023-11-19T03:22:18;1.80;;;1.70;;
5539;SDS011;2792;52.452;9.752;2023-11-19T03:24:45;2.30;;;2.10;;
5539;SDS011;2792;52.452;9.752;2023-11-19T03:27:12;2.43;;;2.20;;
5539;SDS011;2792;52.452;9.752;2023-11-19T03:29:39;2.30;;;2.17;;
5539;SDS011;2792;52.452;9.752;2023-11-19T03:32:05;2.63;;;2.43;;
5539;SDS011;2792;52.452;9.752;2023-11-19T03:34:32;2.63;;;2.43;;
5539;SDS011;2792;52.452;9.752;2023-11-19T03:36:59;3.40;;;2.70;;
5539;SDS011;2792;52.452;9.752;2023-11-19T03:39:26;3.00;;;2.20;;
5539;SDS011;2792;52.452;9.752;2023-11-19T03:41:52;2.77;;;2.57;;
5539;SDS011;2792;52.452;9.752;2023-11-19T03:44:19;3.00;;;2.80;;
5539;SDS011;2792;52.452;9.752;2023-11-19T03:46:46;3.03;;;2.83;;
5539;SDS011;2792;52.452;9.752;2023-11-19T03:49:13;2.83;;;2.53;;
5539;SDS011;2792;52.452;9.752;2023-11-19T03:51:39;2.90;;;2.70;;
5539;SDS011;2792;52.452;9.752;2023-11-19T03:54:07;3.47;;;3.17;;
5539;SDS011;2792;52.452;9.752;2023-11-19T03:56:34;2.57;;;2.37;;
5539;SDS011;2792;52.452;9.752;2023-11-19T03:59:00;3.93;;;3.20;;
5539;SDS011;2792;52.452;9.752;2023-11-19T04:01:27;3.23;;;2.93;;
5539;SDS011;2792;52.452;9.752;2023-11-19T04:03:53;3.63;;;3.07;;
5539;SDS011;2792;52.452;9.752;2023-11-19T04:06:20;3.50;;;3.20;;
5539;SDS011;2792;52.452;9.752;2023-11-19T04:08:47;3.60;;;3.30;;
5539;SDS011;2792;52.452;9.752;2023-11-19T04:11:16;3.70;;;3.40;;
5539;SDS011;2792;52.452;9.752;2023-11-19T04:13:42;4.10;;;3.63;;
5539;SDS011;2792;52.452;9.752;2023-11-19T04:16:09;4.30;;;3.90;;
5539;SDS011;2792;52.452;9.752;2023-11-19T04:18:35;4.60;;;3.17;;
5539;SDS011;2792;52.452;9.752;2023-11-19T04:21:02;4.70;;;3.73;;
5539;SDS011;2792;52.452;9.752;2023-11-19T04:23:32;4.07;;;3.63;;
5539;SDS011;2792;52.452;9.752;2023-11-19T04:26:01;5.60;;;4.10;;
5539;SDS011;2792;52.452;9.752;2023-11-19T04:28:30;4.43;;;3.47;;
5539;SDS011;2792;52.452;9.752;2023-11-19T04:30:57;7.73;;;4.17;;
5539;SDS011;2792;52.452;9.752;2023-11-19T04:33:23;5.17;;;4.13;;
5539;SDS011;2792;52.452;9.752;2023-11-19T04:35:50;4.90;;;3.93;;
5539;SDS011;2792;52.452;9.752;2023-11-19T04:38:16;5.57;;;3.97;;
5539;SDS011;2792;52.452;9.752;2023-11-19T04:40:43;4.40;;;4.00;;
5539;SDS011;2792;52.452;9.752;2023-11-19T04:43:09;4.90;;;4.40;;
5539;SDS011;2792;52.452;9.752;2023-11-19T04:45:37;5.00;;;4.00;;
5539;SDS011;2792;52.452;9.752;2023-11-19T04:48:04;6.03;;;4.10;;
5539;SDS011;2792;52.452;9.752;2023-11-19T04:50:31;5.83;;;4.60;;
5539;SDS011;2792;52.452;9.752;2023-11-19T04:52:57;8.60;;;5.10;;
5539;SDS011;2792;52.452;9.752;2023-11-19T04:55:24;8.53;;;4.67;;
5539;SDS011;2792;52.452;9.752;2023-11-19T04:57:53;8.23;;;5.90;;
5539;SDS011;2792;52.452;9.752;2023-11-19T05:00:20;10.70;;;6.17;;
5539;SDS011;2792;52.452;9.752;2023-11-19T05:02:48;8.83;;;5.87;;
5539;SDS011;2792;52.452;9.752;2023-11-19T05:05:15;10.23;;;7.17;;
5539;SDS011;2792;52.452;9.752;2023-11-19T05:07:41;10.07;;;6.80;;
5539;SDS011;2792;52.452;9.752;2023-11-19T05:10:08;9.90;;;5.60;;
5539;SDS011;2792;52.452;9.752;2023-11-19T05:12:35;8.80;;;5.67;;
5539;SDS011;2792;52.452;9.752;2023-11-19T05:15:01;9.47;;;6.30;;
5539;SDS011;2792;52.452;9.752;2023-11-19T05:17:28;10.70;;;6.93;;
5539;SDS011;2792;52.452;9.752;2023-11-19T05:19:56;11.40;;;7.27;;
5539;SDS011;2792;52.452;9.752;2023-11-19T05:22:22;13.60;;;8.13;;
5539;SDS011;2792;52.452;9.752;2023-11-19T05:24:49;14.40;;;7.87;;
5539;SDS011;2792;52.452;9.752;2023-11-19T05:27:15;12.60;;;7.90;;
5539;SDS011;2792;52.452;9.752;2023-11-19T05:29:42;11.17;;;8.33;;
5539;SDS011;2792;52.452;9.752;2023-11-19T05:32:08;14.70;;;7.30;;
5539;SDS011;2792;52.452;9.752;2023-11-19T05:34:35;12.27;;;7.97;;
5539;SDS011;2792;52.452;9.752;2023-11-19T05:37:03;13.57;;;7.33;;
5539;SDS011;2792;52.452;9.752;2023-11-19T05:39:30;12.43;;;8.93;;
5539;SDS011;2792;52.452;9.752;2023-11-19T05:41:57;14.87;;;10.10;;
5539;SDS011;2792;52.452;9.752;2023-11-19T05:44:24;18.60;;;9.70;;
5539;SDS011;2792;52.452;9.752;2023-11-19T05:46:50;16.77;;;10.80;;
5539;SDS011;2792;52.452;9.752;2023-11-19T05:49:17;23.43;;;11.37;;
5539;SDS011;2792;52.452;9.752;2023-11-19T05:51:43;24.60;;;11.80;;
5539;SDS011;2792;52.452;9.752;2023-11-19T05:54:12;27.70;;;11.47;;
5539;SDS011;2792;52.452;9.752;2023-11-19T05:56:39;20.73;;;11.97;;
5539;SDS011;2792;52.452;9.752;2023-11-19T05:59:06;21.97;;;12.50;;
5539;SDS011;2792;52.452;9.752;2023-11-19T06:01:39;25.73;;;12.90;;
5539;SDS011;2792;52.452;9.752;2023-11-19T06:04:07;24.43;;;12.50;;
5539;SDS011;2792;52.452;9.752;2023-11-19T06:06:34;32.70;;;11.23;;
5539;SDS011;2792;52.452;9.752;2023-11-19T06:09:00;23.10;;;12.23;;
5539;SDS011;2792;52.452;9.752;2023-11-19T06:11:32;26.80;;;11.47;;
5539;SDS011;2792;52.452;9.752;2023-11-19T06:14:00;19.13;;;11.20;;
5539;SDS011;2792;52.452;9.752;2023-11-19T06:16:27;19.97;;;10.37;;
5539;SDS011;2792;52.452;9.752;2023-11-19T06:18:54;22.90;;;12.07;;
5539;SDS011;2792;52.452;9.752;2023-11-19T06:21:20;20.33;;;11.67;;
5539;SDS011;2792;52.452;9.752;2023-11-19T06:23:47;23.20;;;11.23;;
5539;SDS011;2792;52.452;9.752;2023-11-19T06:26:14;23.60;;;10.90;;
5539;SDS011;2792;52.452;9.752;2023-11-19T06:28:42;16.40;;;10.63;;
5539;SDS011;2792;52.452;9.752;2023-11-19T06:31:08;17.37;;;11.63;;
5539;SDS011;2792;52.452;9.752;2023-11-19T06:33:35;28.63;;;12.50;;
5539;SDS011;2792;52.452;9.752;2023-11-19T06:36:01;22.37;;;10.83;;
5539;SDS011;2792;52.452;9.752;2023-11-19T06:38:27;25.80;;;11.00;;
5539;SDS011;2792;52.452;9.752;2023-11-19T06:40:54;21.63;;;9.90;;
5539;SDS011;2792;52.452;9.752;2023-11-19T06:43:20;23.80;;;11.10;;
5539;SDS011;2792;52.452;9.752;2023-11-19T06:45:48;22.60;;;11.50;;
5539;SDS011;2792;52.452;9.752;2023-11-19T06:48:15;21.00;;;9.30;;
5539;SDS011;2792;52.452;9.752;2023-11-19T06:50:41;18.40;;;8.60;;
5539;SDS011;2792;52.452;9.752;2023-11-19T06:53:10;17.97;;;9.40;;
5539;SDS011;2792;52.452;9.752;2023-11-19T06:55:37;25.13;;;8.67;;
5539;SDS011;2792;52.452;9.752;2023-11-19T06:58:05;16.00;;;7.77;;
5539;SDS011;2792;52.452;9.752;2023-11-19T07:00:32;15.90;;;9.40;;
5539;SDS011;2792;52.452;9.752;2023-11-19T07:03:00;15.23;;;7.57;;
5539;SDS011;2792;52.452;9.752;2023-11-19T07:05:27;23.80;;;8.70;;
5539;SDS011;2792;52.452;9.752;2023-11-19T07:07:55;22.50;;;7.40;;
5539;SDS011;2792;52.452;9.752;2023-11-19T07:10:21;11.70;;;6.80;;
5539;SDS011;2792;52.452;9.752;2023-11-19T07:12:48;19.33;;;7.67;;
5539;SDS011;2792;52.452;9.752;2023-11-19T07:15:15;29.13;;;7.37;;
5539;SDS011;2792;52.452;9.752;2023-11-19T07:17:42;22.23;;;8.00;;
5539;SDS011;2792;52.452;9.752;2023-11-19T07:20:11;12.27;;;5.93;;
5539;SDS011;2792;52.452;9.752;2023-11-19T07:22:41;23.80;;;7.20;;
5539;SDS011;2792;52.452;9.752;2023-11-19T07:25:10;16.47;;;6.30;;
5539;SDS011;2792;52.452;9.752;2023-11-19T07:27:37;13.53;;;5.87;;
5539;SDS011;2792;52.452;9.752;2023-11-19T07:30:04;16.03;;;6.47;;
5539;SDS011;2792;52.452;9.752;2023-11-19T07:32:32;22.67;;;5.80;;
5539;SDS011;2792;52.452;9.752;2023-11-19T07:34:58;11.53;;;6.00;;
5539;SDS011;2792;52.452;9.752;2023-11-19T07:37:26;17.10;;;5.27;;
5539;SDS011;2792;52.452;9.752;2023-11-19T07:39:53;19.23;;;5.63;;
5539;SDS011;2792;52.452;9.752;2023-11-19T07:42:20;22.13;;;5.57;;
5539;SDS011;2792;52.452;9.752;2023-11-19T07:44:46;8.97;;;4.57;;
5539;SDS011;2792;52.452;9.752;2023-11-19T07:47:13;11.73;;;5.17;;
5539;SDS011;2792;52.452;9.752;2023-11-19T07:49:39;24.07;;;4.77;;
5539;SDS011;2792;52.452;9.752;2023-11-19T07:52:06;17.13;;;4.53;;
5539;SDS011;2792;52.452;9.752;2023-11-19T07:54:34;15.10;;;3.93;;
5539;SDS011;2792;52.452;9.752;2023-11-19T07:57:00;22.97;;;4.57;;
5539;SDS011;2792;52.452;9.752;2023-11-19T07:59:27;19.20;;;4.53;;
5539;SDS011;2792;52.452;9.752;2023-11-19T08:01:54;23.80;;;5.80;;
5539;SDS011;2792;52.452;9.752;2023-11-19T08:04:20;27.57;;;3.77;;
5539;SDS011;2792;52.452;9.752;2023-11-19T08:06:46;13.90;;;3.80;;
5539;SDS011;2792;52.452;9.752;2023-11-19T08:09:13;25.43;;;4.90;;
5539;SDS011;2792;52.452;9.752;2023-11-19T08:11:41;13.63;;;3.83;;
5539;SDS011;2792;52.452;9.752;2023-11-19T08:14:08;20.80;;;5.87;;
5539;SDS011;2792;52.452;9.752;2023-11-19T08:16:34;16.10;;;3.43;;
5539;SDS011;2792;52.452;9.752;2023-11-19T08:19:02;18.33;;;4.33;;
5539;SDS011;2792;52.452;9.752;2023-11-19T08:21:29;26.83;;;5.83;;
5539;SDS011;2792;52.452;9.752;2023-11-19T08:23:55;29.87;;;6.60;;
5539;SDS011;2792;52.452;9.752;2023-11-19T08:26:21;16.27;;;4.47;;
5539;SDS011;2792;52.452;9.752;2023-11-19T08:28:49;20.83;;;4.67;;
5539;SDS011;2792;52.452;9.752;2023-11-19T08:31:17;14.17;;;3.53;;
5539;SDS011;2792;52.452;9.752;2023-11-19T08:33:43;12.40;;;4.07;;
5539;SDS011;2792;52.452;9.752;2023-11-19T08:36:14;17.43;;;3.87;;
5539;SDS011;2792;52.452;9.752;2023-11-19T08:38:41;20.00;;;4.83;;
5539;SDS011;2792;52.452;9.752;2023-11-19T08:41:08;15.07;;;4.77;;
5539;SDS011;2792;52.452;9.752;2023-11-19T08:43:35;17.40;;;4.27;;
5539;SDS011;2792;52.452;9.752;2023-11-19T08:46:03;21.60;;;4.43;;
5539;SDS011;2792;52.452;9.752;2023-11-19T08:48:30;23.03;;;4.60;;
5539;SDS011;2792;52.452;9.752;2023-11-19T08:50:56;22.30;;;4.00;;
5539;SDS011;2792;52.452;9.752;2023-11-19T08:53:23;21.23;;;5.17;;
5539;SDS011;2792;52.452;9.752;2023-11-19T08:55:49;23.20;;;4.90;;
5539;SDS011;2792;52.452;9.752;2023-11-19T08:58:16;22.23;;;5.80;;
5539;SDS011;2792;52.452;9.752;2023-11-19T09:00:43;22.53;;;4.30;;
5539;SDS011;2792;52.452;9.752;2023-11-19T09:03:11;20.50;;;4.37;;
5539;SDS011;2792;52.452;9.752;2023-11-19T09:05:37;18.90;;;4.60;;
5539;SDS011;2792;52.452;9.752;2023-11-19T09:08:04;22.27;;;4.53;;
5539;SDS011;2792;52.452;9.752;2023-11-19T09:10:31;20.33;;;4.27;;
5539;SDS011;2792;52.452;9.752;2023-11-19T09:12:58;17.87;;;4.37;;
5539;SDS011;2792;52.452;9.752;2023-11-19T09:15:24;19.70;;;3.80;;
5539;SDS011;2792;52.452;9.752;2023-11-19T09:17:51;19.03;;;4.30;;
5539;SDS011;2792;52.452;9.752;2023-11-19T09:20:18;15.80;;;4.87;;
5539;SDS011;2792;52.452;9.752;2023-11-19T09:22:45;15.80;;;4.07;;
5539;SDS011;2792;52.452;9.752;2023-11-19T09:25:12;18.30;;;4.13;;
5539;SDS011;2792;52.452;9.752;2023-11-19T09:27:41;25.57;;;5.50;;
5539;SDS011;2792;52.452;9.752;2023-11-19T09:30:08;19.40;;;5.00;;
5539;SDS011;2792;52.452;9.752;2023-11-19T09:32:35;21.83;;;4.50;;
5539;SDS011;2792;52.452;9.752;2023-11-19T09:35:02;20.73;;;4.10;;
5539;SDS011;2792;52.452;9.752;2023-11-19T09:37:31;20.97;;;4.67;;
5539;SDS011;2792;52.452;9.752;2023-11-19T09:39:57;29.07;;;4.20;;
5539;SDS011;2792;52.452;9.752;2023-11-19T09:42:24;19.70;;;4.30;;
5539;SDS011;2792;52.452;9.752;2023-11-19T09:44:51;17.90;;;4.10;;
5539;SDS011;2792;52.452;9.752;2023-11-19T09:47:19;19.43;;;4.23;;
5539;SDS011;2792;52.452;9.752;2023-11-19T09:49:46;24.87;;;4.80;;
5539;SDS011;2792;52.452;9.752;2023-11-19T09:52:12;22.00;;;4.43;;
5539;SDS011;2792;52.452;9.752;2023-11-19T09:54:40;24.60;;;5.00;;
5539;SDS011;2792;52.452;9.752;2023-11-19T09:57:07;18.60;;;3.97;;
5539;SDS011;2792;52.452;9.752;2023-11-19T09:59:35;19.90;;;4.37;;
5539;SDS011;2792;52.452;9.752;2023-11-19T10:02:03;17.40;;;4.50;;
5539;SDS011;2792;52.452;9.752;2023-11-19T10:04:30;24.67;;;5.93;;
5539;SDS011;2792;52.452;9.752;2023-11-19T10:06:56;28.53;;;4.93;;
5539;SDS011;2792;52.452;9.752;2023-11-19T10:09:23;23.57;;;3.70;;
5539;SDS011;2792;52.452;9.752;2023-11-19T10:11:51;25.17;;;4.87;;
5539;SDS011;2792;52.452;9.752;2023-11-19T10:14:17;23.80;;;4.13;;
5539;SDS011;2792;52.452;9.752;2023-11-19T10:16:45;16.13;;;3.67;;
5539;SDS011;2792;52.452;9.752;2023-11-19T10:19:12;29.37;;;5.00;;
5539;SDS011;2792;52.452;9.752;2023-11-19T10:21:39;19.50;;;3.90;;
5539;SDS011;2792;52.452;9.752;2023-11-19T10:24:05;14.87;;;4.30;;
5539;SDS011;2792;52.452;9.752;2023-11-19T10:26:32;19.43;;;3.93;;
5539;SDS011;2792;52.452;9.752;2023-11-19T10:29:00;21.83;;;4.63;;
5539;SDS011;2792;52.452;9.752;2023-11-19T10:31:27;23.47;;;5.70;;
5539;SDS011;2792;52.452;9.752;2023-11-19T10:33:53;24.17;;;5.40;;
5539;SDS011;2792;52.452;9.752;2023-11-19T10:36:21;23.00;;;4.90;;
5539;SDS011;2792;52.452;9.752;2023-11-19T10:38:52;16.20;;;3.93;;
5539;SDS011;2792;52.452;9.752;2023-11-19T10:44:05;15.67;;;3.67;;
5539;SDS011;2792;52.452;9.752;2023-11-19T10:46:38;17.27;;;4.43;;
5539;SDS011;2792;52.452;9.752;2023-11-19T10:49:05;17.03;;;3.80;;
5539;SDS011;2792;52.452;9.752;2023-11-19T10:51:32;16.27;;;3.60;;
5539;SDS011;2792;52.452;9.752;2023-11-19T10:54:01;26.97;;;4.40;;
5539;SDS011;2792;52.452;9.752;2023-11-19T10:56:29;18.57;;;4.27;;
5539;SDS011;2792;52.452;9.752;2023-11-19T10:58:57;18.83;;;4.23;;
5539;SDS011;2792;52.452;9.752;2023-11-19T11:01:27;15.27;;;3.93;;
5539;SDS011;2792;52.452;9.752;2023-11-19T11:04:00;14.33;;;3.37;;
5539;SDS011;2792;52.452;9.752;2023-11-19T11:06:28;20.03;;;4.90;;
5539;SDS011;2792;52.452;9.752;2023-11-19T11:08:55;16.97;;;4.53;;
5539;SDS011;2792;52.452;9.752;2023-11-19T11:11:22;19.10;;;4.57;;
5539;SDS011;2792;52.452;9.752;2023-11-19T11:13:49;21.03;;;4.00;;
5539;SDS011;2792;52.452;9.752;2023-11-19T11:16:16;22.80;;;4.97;;
5539;SDS011;2792;52.452;9.752;2023-11-19T11:18:46;22.73;;;4.80;;
5539;SDS011;2792;52.452;9.752;2023-11-19T11:21:15;16.57;;;4.80;;
5539;SDS011;2792;52.452;9.752;2023-11-19T11:27:02;22.17;;;5.27;;
5539;SDS011;2792;52.452;9.752;2023-11-19T11:29:40;15.07;;;4.37;;
5539;SDS011;2792;52.452;9.752;2023-11-19T11:32:13;25.93;;;4.40;;
5539;SDS011;2792;52.452;9.752;2023-11-19T11:37:52;14.83;;;3.90;;
5539;SDS011;2792;52.452;9.752;2023-11-19T11:40:21;15.03;;;4.80;;
5539;SDS011;2792;52.452;9.752;2023-11-19T11:42:48;19.77;;;4.23;;
5539;SDS011;2792;52.452;9.752;2023-11-19T11:45:17;17.70;;;4.83;;
5539;SDS011;2792;52.452;9.752;2023-11-19T11:48:04;18.73;;;5.03;;
5539;SDS011;2792;52.452;9.752;2023-11-19T11:50:47;20.27;;;5.27;;
5539;SDS011;2792;52.452;9.752;2023-11-19T11:53:19;21.30;;;5.40;;
5539;SDS011;2792;52.452;9.752;2023-11-19T11:55:57;15.10;;;4.00;;
5539;SDS011;2792;52.452;9.752;2023-11-19T11:58:25;19.97;;;4.60;;
5539;SDS011;2792;52.452;9.752;2023-11-19T12:00:53;21.13;;;4.80;;
5539;SDS011;2792;52.452;9.752;2023-11-19T12:03:20;17.60;;;4.30;;
5539;SDS011;2792;52.452;9.752;2023-11-19T12:05:47;15.93;;;4.57;;
5539;SDS011;2792;52.452;9.752;2023-11-19T12:08:14;21.67;;;5.17;;
5539;SDS011;2792;52.452;9.752;2023-11-19T12:10:45;17.60;;;4.40;;
5539;SDS011;2792;52.452;9.752;2023-11-19T12:13:13;21.73;;;4.73;;
5539;SDS011;2792;52.452;9.752;2023-11-19T12:18:34;28.60;;;4.20;;
5539;SDS011;2792;52.452;9.752;2023-11-19T12:21:00;23.70;;;5.57;;
5539;SDS011;2792;52.452;9.752;2023-11-19T12:23:27;29.97;;;5.13;;
5539;SDS011;2792;52.452;9.752;2023-11-19T12:25:56;24.43;;;4.80;;
5539;SDS011;2792;52.452;9.752;2023-11-19T12:28:23;19.63;;;4.80;;
5539;SDS011;2792;52.452;9.752;2023-11-19T12:30:51;17.60;;;4.87;;
5539;SDS011;2792;52.452;9.752;2023-11-19T12:33:18;26.47;;;5.27;;
5539;SDS011;2792;52.452;9.752;2023-11-19T12:35:49;19.63;;;5.00;;
5539;SDS011;2792;52.452;9.752;2023-11-19T12:38:18;25.40;;;4.93;;
5539;SDS011;2792;52.452;9.752;2023-11-19T12:40:46;19.90;;;4.57;;
5539;SDS011;2792;52.452;9.752;2023-11-19T12:43:22;26.77;;;4.53;;
5539;SDS011;2792;52.452;9.752;2023-11-19T12:45:48;21.37;;;5.40;;
5539;SDS011;2792;52.452;9.752;2023-11-19T12:48:15;19.43;;;4.17;;
5539;SDS011;2792;52.452;9.752;2023-11-19T12:50:50;19.60;;;4.30;;
5539;SDS011;2792;52.452;9.752;2023-11-19T12:53:17;26.33;;;5.27;;
5539;SDS011;2792;52.452;9.752;2023-11-19T12:55:44;15.63;;;4.20;;
5539;SDS011;2792;52.452;9.752;2023-11-19T12:58:11;17.10;;;4.00;;
5539;SDS011;2792;52.452;9.752;2023-11-19T13:00:59;20.53;;;4.97;;
5539;SDS011;2792;52.452;9.752;2023-11-19T13:03:29;16.53;;;4.60;;
5539;SDS011;2792;52.452;9.752;2023-11-19T13:06:00;14.23;;;4.30;;
5539;SDS011;2792;52.452;9.752;2023-11-19T13:08:28;22.30;;;4.47;;
5539;SDS011;2792;52.452;9.752;2023-11-19T13:10:55;21.40;;;4.70;;
5539;SDS011;2792;52.452;9.752;2023-11-19T13:13:22;16.10;;;4.27;;
5539;SDS011;2792;52.452;9.752;2023-11-19T13:15:50;14.43;;;4.60;;
5539;SDS011;2792;52.452;9.752;2023-11-19T13:18:16;17.90;;;4.43;;
5539;SDS011;2792;52.452;9.752;2023-11-19T13:20:43;18.23;;;4.67;;
5539;SDS011;2792;52.452;9.752;2023-11-19T13:23:09;22.10;;;5.40;;
5539;SDS011;2792;52.452;9.752;2023-11-19T13:25:36;15.83;;;3.77;;
5539;SDS011;2792;52.452;9.752;2023-11-19T13:28:03;19.30;;;4.17;;
5539;SDS011;2792;52.452;9.752;2023-11-19T13:30:31;18.23;;;6.30;;
5539;SDS011;2792;52.452;9.752;2023-11-19T13:32:58;17.00;;;4.57;;
5539;SDS011;2792;52.452;9.752;2023-11-19T13:35:25;20.50;;;3.80;;
5539;SDS011;2792;52.452;9.752;2023-11-19T13:37:53;21.03;;;6.53;;
5539;SDS011;2792;52.452;9.752;2023-11-19T13:40:19;22.87;;;4.50;;
5539;SDS011;2792;52.452;9.752;2023-11-19T13:42:47;18.07;;;5.87;;
5539;SDS011;2792;52.452;9.752;2023-11-19T13:45:14;22.90;;;4.70;;
5539;SDS011;2792;52.452;9.752;2023-11-19T13:47:43;31.57;;;6.50;;
5539;SDS011;2792;52.452;9.752;2023-11-19T13:50:12;26.90;;;7.10;;
5539;SDS011;2792;52.452;9.752;2023-11-19T13:52:41;18.97;;;4.97;;
5539;SDS011;2792;52.452;9.752;2023-11-19T13:55:10;17.73;;;4.73;;
5539;SDS011;2792;52.452;9.752;2023-11-19T13:57:37;18.47;;;5.00;;
5539;SDS011;2792;52.452;9.752;2023-11-19T14:00:05;18.43;;;5.27;;
5539;SDS011;2792;52.452;9.752;2023-11-19T14:02:36;16.60;;;3.63;;
5539;SDS011;2792;52.452;9.752;2023-11-19T14:05:03;13.63;;;3.83;;
5539;SDS011;2792;52.452;9.752;2023-11-19T14:07:32;19.80;;;4.30;;
5539;SDS011;2792;52.452;9.752;2023-11-19T14:09:59;25.10;;;5.47;;
5539;SDS011;2792;52.452;9.752;2023-11-19T14:12:25;21.77;;;5.60;;
5539;SDS011;2792;52.452;9.752;2023-11-19T14:14:52;18.47;;;4.20;;
5539;SDS011;2792;52.452;9.752;2023-11-19T14:17:19;20.83;;;4.93;;
5539;SDS011;2792;52.452;9.752;2023-11-19T14:19:46;18.87;;;5.07;;
5539;SDS011;2792;52.452;9.752;2023-11-19T14:22:12;16.53;;;5.17;;
5539;SDS011;2792;52.452;9.752;2023-11-19T14:24:40;23.93;;;5.40;;
5539;SDS011;2792;52.452;9.752;2023-11-19T14:27:08;22.10;;;5.10;;
5539;SDS011;2792;52.452;9.752;2023-11-19T14:29:34;15.63;;;4.00;;
5539;SDS011;2792;52.452;9.752;2023-11-19T14:32:01;21.47;;;5.00;;
5539;SDS011;2792;52.452;9.752;2023-11-19T14:34:28;10.53;;;3.73;;
5539;SDS011;2792;52.452;9.752;2023-11-19T14:36:55;16.13;;;3.60;;
5539;SDS011;2792;52.452;9.752;2023-11-19T14:39:22;20.00;;;3.70;;
5539;SDS011;2792;52.452;9.752;2023-11-19T14:41:50;15.60;;;3.33;;
5539;SDS011;2792;52.452;9.752;2023-11-19T14:44:17;18.03;;;4.73;;
5539;SDS011;2792;52.452;9.752;2023-11-19T14:46:45;23.47;;;5.20;;
5539;SDS011;2792;52.452;9.752;2023-11-19T14:49:11;19.83;;;6.33;;
5539;SDS011;2792;52.452;9.752;2023-11-19T14:51:39;19.43;;;5.60;;
5539;SDS011;2792;52.452;9.752;2023-11-19T14:54:05;17.40;;;4.03;;
5539;SDS011;2792;52.452;9.752;2023-11-19T14:56:32;15.50;;;4.40;;
5539;SDS011;2792;52.452;9.752;2023-11-19T14:59:00;24.83;;;4.13;;
5539;SDS011;2792;52.452;9.752;2023-11-19T15:01:26;19.13;;;3.80;;
5539;SDS011;2792;52.452;9.752;2023-11-19T15:03:53;9.30;;;3.13;;
5539;SDS011;2792;52.452;9.752;2023-11-19T15:06:25;15.17;;;4.47;;
5539;SDS011;2792;52.452;9.752;2023-11-19T15:08:53;17.13;;;5.00;;
5539;SDS011;2792;52.452;9.752;2023-11-19T15:11:19;15.20;;;5.47;;
5539;SDS011;2792;52.452;9.752;2023-11-19T15:13:46;23.17;;;6.70;;
5539;SDS011;2792;52.452;9.752;2023-11-19T15:16:14;21.83;;;5.20;;
5539;SDS011;2792;52.452;9.752;2023-11-19T15:18:47;25.20;;;5.10;;